createdAt,value
2023-08-12T00:00:12.674Z,100276.97
2023-08-12T00:02:45.163Z,100276.28
2023-08-12T00:05:14.470Z,100281.00
2023-08-12T00:07:43.388Z,100283.38
2023-08-12T00:10:14.088Z,100266.94
2023-08-12T00:12:42.325Z,100271.88
2023-08-12T00:15:12.510Z,100266.63
2023-08-12T00:17:43.189Z,100266.44
2023-08-12T00:20:13.561Z,100271.19
2023-08-12T00:22:42.766Z,100288.44
2023-08-12T00:25:10.984Z,100287.44
2023-08-12T00:27:40.243Z,100293.69
2023-08-12T00:30:09.174Z,100294.66
2023-08-12T00:32:40.003Z,100298.31
2023-08-12T00:35:09.093Z,100298.16
2023-08-12T00:37:37.098Z,100284.53
2023-08-12T00:40:07.931Z,100319.72
2023-08-12T00:42:35.922Z,100307.88
2023-08-12T00:45:05.607Z,100318.22
2023-08-12T00:47:33.974Z,100313.03
2023-08-12T00:50:03.463Z,100310.31
2023-08-12T00:52:32.018Z,100308.84
2023-08-12T00:55:00.100Z,100316.81
2023-08-12T00:57:29.148Z,100321.38
2023-08-12T00:59:58.701Z,100341.56
2023-08-12T01:02:26.899Z,100343.69
2023-08-12T01:04:56.130Z,100335.25
2023-08-12T01:07:25.955Z,100322.81
2023-08-12T01:09:54.345Z,100315.00
2023-08-12T01:12:28.753Z,100318.72
2023-08-12T01:15:11.951Z,100322.91
2023-08-12T01:17:43.630Z,100326.69
2023-08-12T01:20:14.115Z,100325.47
2023-08-12T01:22:47.848Z,100318.03
2023-08-12T01:25:18.060Z,100300.63
2023-08-12T01:27:47.310Z,100306.09
2023-08-12T01:30:16.452Z,100310.13
2023-08-12T01:32:55.758Z,100306.09
2023-08-12T01:35:28.304Z,100300.69
2023-08-12T01:38:00.414Z,100298.66
2023-08-12T01:40:31.480Z,100300.13
2023-08-12T01:43:02.050Z,100293.09
2023-08-12T01:45:33.096Z,100291.91
2023-08-12T01:48:01.730Z,100286.00
2023-08-12T01:50:29.944Z,100295.66
2023-08-12T01:53:00.030Z,100302.97
2023-08-12T01:55:29.404Z,100295.53
2023-08-12T01:57:58.494Z,100302.31
2023-08-12T02:00:26.988Z,100307.03
2023-08-12T02:02:55.203Z,100319.56
2023-08-12T02:05:23.663Z,100322.28
2023-08-12T02:07:52.200Z,100328.03
2023-08-12T02:10:21.193Z,100324.81
2023-08-12T02:12:50.552Z,100316.88
2023-08-12T02:15:19.319Z,100320.25
2023-08-12T02:17:47.869Z,100315.34
2023-08-12T02:20:16.052Z,100312.47
2023-08-12T02:22:44.576Z,100305.03
2023-08-12T02:25:13.059Z,100307.25
2023-08-12T02:27:41.187Z,100310.78
2023-08-12T02:30:13.634Z,100316.03
2023-08-12T02:32:44.540Z,100315.34
2023-08-12T02:35:13.550Z,100321.44
2023-08-12T02:37:41.501Z,100329.72
2023-08-12T02:40:11.712Z,100325.34
2023-08-12T02:42:40.600Z,100316.88
2023-08-12T02:45:08.976Z,100316.19
2023-08-12T02:47:38.888Z,100312.47
2023-08-12T02:50:07.598Z,100307.75
2023-08-12T02:52:35.799Z,100301.81
2023-08-12T02:55:05.040Z,100297.94
2023-08-12T02:57:33.090Z,100299.78
2023-08-12T03:00:01.797Z,100295.38
2023-08-12T03:02:29.891Z,100295.22
2023-08-12T03:04:59.323Z,100302.00
2023-08-12T03:07:28.176Z,100306.06
2023-08-12T03:09:56.251Z,100311.97
2023-08-12T03:12:24.402Z,100309.09
2023-08-12T03:14:53.295Z,100310.78
2023-08-12T03:17:21.414Z,100301.31
2023-08-12T03:19:50.798Z,100306.88
2023-08-12T03:22:20.290Z,100310.44
2023-08-12T03:24:51.904Z,100309.75
2023-08-12T03:27:19.969Z,100303.19
2023-08-12T03:29:48.886Z,100302.00
2023-08-12T03:32:18.258Z,100301.31
2023-08-12T03:34:46.327Z,100302.63
2023-08-12T03:37:14.639Z,100303.00
2023-08-12T03:39:45.877Z,100297.91
2023-08-12T03:42:15.740Z,100290.81
2023-08-12T03:44:44.746Z,100296.22
2023-08-12T03:47:13.392Z,100288.28
2023-08-12T03:49:42.970Z,100295.72
2023-08-12T03:52:11.526Z,100296.38
2023-08-12T03:54:39.567Z,100293.84
2023-08-12T03:57:09.748Z,100292.34
2023-08-12T03:59:39.122Z,100282.34
2023-08-12T04:02:08.674Z,100279.28
2023-08-12T04:04:36.665Z,100277.63
2023-08-12T04:07:05.111Z,100276.09
2023-08-12T04:09:33.161Z,100286.09
2023-08-12T04:12:01.182Z,100287.09
2023-08-12T04:14:31.688Z,100287.41
2023-08-12T04:16:59.782Z,100287.59
2023-08-12T04:19:27.787Z,100287.91
2023-08-12T04:21:56.779Z,100275.41
2023-08-12T04:24:24.851Z,100281.31
2023-08-12T04:26:53.307Z,100273.34
2023-08-12T04:29:21.400Z,100283.47
2023-08-12T04:31:51.169Z,100279.94
2023-08-12T04:34:20.117Z,100267.25
2023-08-12T04:36:48.093Z,100266.94
2023-08-12T04:39:17.070Z,100268.78
2023-08-12T04:41:47.926Z,100264.38
2023-08-12T04:44:17.580Z,100263.22
2023-08-12T04:46:45.786Z,100259.00
2023-08-12T04:49:15.200Z,100250.91
2023-08-12T04:51:44.926Z,100257.66
2023-08-12T04:54:13.922Z,100249.38
2023-08-12T04:56:44.644Z,100248.38
2023-08-12T04:59:12.976Z,100243.50
2023-08-12T05:01:54.476Z,100243.34
2023-08-12T05:04:32.596Z,100233.53
2023-08-12T05:07:00.605Z,100227.44
2023-08-12T05:09:29.175Z,100224.91
2023-08-12T05:11:57.166Z,100219.50
2023-08-12T05:14:25.561Z,100223.91
2023-08-12T05:16:54.081Z,100225.56
2023-08-12T05:19:22.411Z,100223.72
2023-08-12T05:21:52.685Z,100225.25
2023-08-12T05:24:21.598Z,100224.88
2023-08-12T05:26:49.633Z,100223.38
2023-08-12T05:29:18.498Z,100217.81
2023-08-12T05:31:46.589Z,100215.09
2023-08-12T05:34:14.574Z,100200.88
2023-08-12T05:36:42.732Z,100209.16
2023-08-12T05:39:12.676Z,100204.63
2023-08-12T05:41:41.085Z,100207.31
2023-08-12T05:44:09.282Z,100212.38
2023-08-12T05:46:37.767Z,100200.88
2023-08-12T05:49:06.252Z,100199.47
2023-08-12T05:51:34.226Z,100192.06
2023-08-12T05:54:03.230Z,100194.22
2023-08-12T05:56:32.694Z,100198.13
2023-08-12T05:59:01.587Z,100195.41
2023-08-12T06:01:29.566Z,100191.66
2023-08-12T06:03:58.532Z,100185.41
2023-08-12T06:06:26.616Z,100188.78
2023-08-12T06:08:54.570Z,100184.03
2023-08-12T06:11:23.457Z,100189.75
2023-08-12T06:13:52.810Z,100189.75
2023-08-12T06:16:21.727Z,100188.06
2023-08-12T06:18:49.724Z,100187.31
2023-08-12T06:21:18.783Z,100184.78
2023-08-12T06:23:47.166Z,100185.50
2023-08-12T06:26:15.568Z,100176.16
2023-08-12T06:28:43.629Z,100172.78
2023-08-12T06:31:13.054Z,100169.19
2023-08-12T06:33:41.671Z,100168.34
2023-08-12T06:36:09.653Z,100163.00
2023-08-12T06:38:37.682Z,100158.47
2023-08-12T06:41:05.741Z,100151.63
2023-08-12T06:43:33.744Z,100142.38
2023-08-12T06:46:01.798Z,100135.31
2023-08-12T06:48:31.431Z,100137.97
2023-08-12T06:51:00.364Z,100141.69
2023-08-12T06:53:28.750Z,100148.03
2023-08-12T06:55:57.609Z,100148.97
2023-08-12T06:58:25.536Z,100141.41
2023-08-12T07:00:54.494Z,100136.97
2023-08-12T07:03:23.035Z,100142.13
2023-08-12T07:05:52.506Z,100139.31
2023-08-12T07:08:20.561Z,100137.94
2023-08-12T07:10:49.065Z,100140.72
2023-08-12T07:13:17.514Z,100137.06
2023-08-12T07:15:45.978Z,100155.69
2023-08-12T07:18:14.050Z,100155.63
2023-08-12T07:20:42.503Z,100157.78
2023-08-12T07:23:11.883Z,100154.22
2023-08-12T07:25:40.123Z,100160.78
2023-08-12T07:28:08.261Z,100161.38
2023-08-12T07:30:37.347Z,100162.16
2023-08-12T07:33:06.685Z,100160.94
2023-08-12T07:35:34.908Z,100156.38
2023-08-12T07:38:03.055Z,100155.50
2023-08-12T07:40:32.755Z,100165.38
2023-08-12T07:43:00.522Z,100155.25
2023-08-12T07:45:29.032Z,100154.53
2023-08-12T07:47:57.229Z,100150.31
2023-08-12T07:50:25.853Z,100150.31
2023-08-12T07:52:54.565Z,100141.41
2023-08-12T07:55:24.915Z,100136.78
2023-08-12T07:57:56.186Z,100147.53
2023-08-12T08:00:24.418Z,100144.44
2023-08-12T08:02:52.413Z,100148.91
2023-08-12T08:05:21.394Z,100139.72
2023-08-12T08:07:49.422Z,100138.53
2023-08-12T08:10:17.706Z,100132.78
2023-08-12T08:12:46.114Z,100133.59
2023-08-12T08:15:15.488Z,100141.09
2023-08-12T08:17:43.736Z,100140.66
2023-08-12T08:20:12.360Z,100134.59
2023-08-12T08:22:40.734Z,100132.13
2023-08-12T08:25:10.012Z,100117.88
2023-08-12T08:27:38.469Z,100110.78
2023-08-12T08:30:07.371Z,100106.09
2023-08-12T08:32:36.740Z,100102.25
2023-08-12T08:35:06.057Z,100112.06
2023-08-12T08:37:34.138Z,100109.34
2023-08-12T08:40:02.601Z,100102.63
2023-08-12T08:42:31.104Z,100103.38
2023-08-12T08:45:04.739Z,100095.59
2023-08-12T08:47:33.612Z,100102.72
2023-08-12T08:50:03.618Z,100105.63
2023-08-12T08:52:32.522Z,100097.09
2023-08-12T08:55:04.196Z,100095.88
2023-08-12T08:57:43.664Z,100099.25
2023-08-12T09:00:18.195Z,100100.81
2023-08-12T09:02:49.401Z,100112.19
2023-08-12T09:05:19.797Z,100114.69
2023-08-12T09:07:49.541Z,100107.69
2023-08-12T09:10:19.245Z,100117.81
2023-08-12T09:12:48.666Z,100125.28
2023-08-12T09:15:20.039Z,100117.72
2023-08-12T09:17:48.139Z,100126.03
2023-08-12T09:20:17.151Z,100116.00
2023-08-12T09:22:47.027Z,100109.25
2023-08-12T09:25:15.052Z,100103.53
2023-08-12T09:27:42.991Z,100095.13
2023-08-12T09:30:14.818Z,100095.94
2023-08-12T09:32:44.400Z,100095.50
2023-08-12T09:35:19.400Z,100083.78
2023-08-12T09:37:48.897Z,100092.09
2023-08-12T09:40:17.220Z,100080.31
2023-08-12T09:42:49.840Z,100067.56
2023-08-12T09:45:21.603Z,100061.88
2023-08-12T09:47:50.487Z,100057.91
2023-08-12T09:50:18.683Z,100065.50
2023-08-12T09:52:49.010Z,100062.16
2023-08-12T09:55:19.340Z,100064.50
2023-08-12T09:57:50.156Z,100046.66
2023-08-12T10:00:20.681Z,100059.22
2023-08-12T10:02:49.891Z,100055.66
2023-08-12T10:05:24.040Z,100068.72
2023-08-12T10:07:55.837Z,100063.66
2023-08-12T10:10:25.225Z,100066.22
2023-08-12T10:12:54.043Z,100069.34
2023-08-12T10:15:23.744Z,100061.81
2023-08-12T10:17:54.169Z,100056.16
2023-08-12T10:20:24.164Z,100058.88
2023-08-12T10:22:54.347Z,100056.94
2023-08-12T10:25:24.126Z,100045.19
2023-08-12T10:27:54.126Z,100060.06
2023-08-12T10:30:23.164Z,100056.00
2023-08-12T10:32:51.955Z,100063.09
2023-08-12T10:35:20.540Z,100068.28
2023-08-12T10:37:52.003Z,100065.34
2023-08-12T10:40:25.925Z,100057.81
2023-08-12T10:42:54.270Z,100059.22
2023-08-12T10:45:22.350Z,100057.22
2023-08-12T10:47:54.594Z,100051.69
2023-08-12T10:50:27.773Z,100055.25
2023-08-12T10:52:56.892Z,100059.38
2023-08-12T10:55:29.892Z,100056.03
2023-08-12T10:58:00.613Z,100052.06
2023-08-12T11:00:31.272Z,100057.06
2023-08-12T11:03:00.129Z,100056.28
2023-08-12T11:05:38.729Z,100054.88
2023-08-12T11:08:08.521Z,100030.47
2023-08-12T11:10:37.940Z,100037.25
2023-08-12T11:13:06.447Z,100023.44
2023-08-12T11:15:38.434Z,100026.25
2023-08-12T11:18:07.732Z,100022.88
2023-08-12T11:20:36.941Z,100025.97
2023-08-12T11:23:06.796Z,100023.06
2023-08-12T11:25:35.020Z,100024.19
2023-08-12T11:28:06.443Z,100030.81
2023-08-12T11:30:34.695Z,100035.13
2023-08-12T11:33:04.286Z,100039.97
2023-08-12T11:35:32.892Z,100037.44
2023-08-12T11:38:01.475Z,100031.78
2023-08-12T11:40:30.465Z,100032.19
2023-08-12T11:42:59.219Z,100030.53
2023-08-12T11:45:29.551Z,100034.50
2023-08-12T11:47:59.024Z,100022.94
2023-08-12T11:50:28.744Z,100025.25
2023-08-12T11:52:59.030Z,100017.28
2023-08-12T11:55:27.761Z,100021.91
2023-08-12T11:57:56.300Z,100019.81
2023-08-12T12:00:29.440Z,100017.91
2023-08-12T12:02:58.651Z,100022.13
2023-08-12T12:05:28.968Z,100018.97
2023-08-12T12:07:57.420Z,100021.63
2023-08-12T12:10:34.583Z,100010.53
2023-08-12T12:13:05.966Z,100013.22
2023-08-12T12:15:41.502Z,100016.69
2023-08-12T12:18:12.672Z,100015.84
2023-08-12T12:20:45.689Z,100009.53
2023-08-12T12:23:13.793Z,100008.91
2023-08-12T12:25:43.373Z,100005.72
2023-08-12T12:28:11.792Z,99994.19
2023-08-12T12:30:41.190Z,99987.50
2023-08-12T12:33:10.181Z,99996.31
2023-08-12T12:35:51.650Z,99996.94
2023-08-12T12:38:25.273Z,99998.19
2023-08-12T12:40:53.254Z,100004.28
2023-08-12T12:43:21.326Z,100003.63
2023-08-12T12:45:51.062Z,100009.94
2023-08-12T12:48:19.140Z,100006.59
2023-08-12T12:50:47.816Z,100011.00
2023-08-12T12:53:15.827Z,100015.41
2023-08-12T12:55:45.483Z,100013.53
2023-08-12T12:58:14.483Z,100013.94
2023-08-12T13:00:42.456Z,100013.50
2023-08-12T13:03:13.457Z,100016.94
2023-08-12T13:05:41.707Z,100024.78
2023-08-12T13:08:09.993Z,100015.97
2023-08-12T13:10:38.472Z,100013.97
2023-08-12T13:13:06.605Z,100006.38
2023-08-12T13:15:35.643Z,100014.47
2023-08-12T13:18:04.138Z,100019.63
2023-08-12T13:20:34.141Z,100013.25
2023-08-12T13:23:02.712Z,100017.41
2023-08-12T13:25:32.552Z,100033.22
2023-08-12T13:28:01.714Z,100037.41
2023-08-12T13:30:30.415Z,100043.09
2023-08-12T13:33:01.703Z,100042.63
2023-08-12T13:35:30.199Z,100032.72
2023-08-12T13:38:00.080Z,100022.03
2023-08-12T13:40:28.295Z,100026.38
2023-08-12T13:42:58.159Z,100023.81
2023-08-12T13:45:26.366Z,100027.03
2023-08-12T13:47:54.530Z,100028.38
2023-08-12T13:50:22.719Z,100032.91
2023-08-12T13:52:52.055Z,100029.06
2023-08-12T13:55:21.473Z,100027.88
2023-08-12T13:57:49.514Z,100042.88
2023-08-12T14:00:18.585Z,100043.06
2023-08-12T14:02:48.665Z,100035.66
2023-08-12T14:05:16.883Z,100042.97
2023-08-12T14:07:45.580Z,100045.50
2023-08-12T14:10:13.658Z,100036.81
2023-08-12T14:12:43.609Z,100041.84
2023-08-12T14:15:12.266Z,100035.00
2023-08-12T14:17:40.970Z,100038.41
2023-08-12T14:20:11.752Z,100044.31
2023-08-12T14:22:39.771Z,100058.63
2023-08-12T14:25:09.132Z,100053.19
2023-08-12T14:27:37.709Z,100039.63
2023-08-12T14:30:08.451Z,100033.56
2023-08-12T14:32:36.734Z,100035.84
2023-08-12T14:35:06.666Z,100034.03
2023-08-12T14:37:34.773Z,100023.97
2023-08-12T14:40:05.667Z,100026.25
2023-08-12T14:42:33.754Z,100023.06
2023-08-12T14:45:01.771Z,100027.75
2023-08-12T14:47:31.788Z,100029.81
2023-08-12T14:49:59.993Z,100047.59
2023-08-12T14:52:28.424Z,100053.69
2023-08-12T14:54:56.819Z,100038.56
2023-08-12T14:57:24.825Z,100038.72
2023-08-12T14:59:52.845Z,100045.41
2023-08-12T15:02:22.776Z,100038.91
2023-08-12T15:04:53.166Z,100028.97
2023-08-12T15:07:23.044Z,100032.94
2023-08-12T15:09:53.084Z,100029.72
2023-08-12T15:12:21.383Z,100034.91
2023-08-12T15:14:49.889Z,100023.13
2023-08-12T15:17:18.601Z,100027.53
2023-08-12T15:19:46.604Z,100033.78
2023-08-12T15:22:16.094Z,100030.28
2023-08-12T15:24:43.995Z,100024.94
2023-08-12T15:27:12.311Z,100036.34
2023-08-12T15:29:40.671Z,100063.44
2023-08-12T15:32:08.769Z,100063.03
2023-08-12T15:34:36.918Z,100063.75
2023-08-12T15:37:07.507Z,100067.13
2023-08-12T15:39:37.796Z,100059.28
2023-08-12T15:42:06.512Z,100060.00
2023-08-12T15:44:34.999Z,100069.13
2023-08-12T15:47:02.998Z,100068.47
2023-08-12T15:49:35.173Z,100071.81
2023-08-12T15:52:03.600Z,100062.38
2023-08-12T15:54:31.654Z,100068.66
2023-08-12T15:57:02.233Z,100060.63
2023-08-12T15:59:30.347Z,100074.91
2023-08-12T16:01:58.711Z,100084.66
2023-08-12T16:04:27.999Z,100100.91
2023-08-12T16:06:56.059Z,100109.13
2023-08-12T16:09:24.266Z,100101.59
2023-08-12T16:11:52.692Z,100111.81
2023-08-12T16:14:22.217Z,100102.78
2023-08-12T16:16:50.737Z,100101.69
2023-08-12T16:19:18.955Z,100096.88
2023-08-12T16:21:46.982Z,100116.03
2023-08-12T16:24:15.493Z,100119.53
2023-08-12T16:26:43.906Z,100114.16
2023-08-12T16:29:12.339Z,100108.31
2023-08-12T16:31:42.249Z,100107.34
2023-08-12T16:34:10.448Z,100106.25
2023-08-12T16:36:38.889Z,100096.47
2023-08-12T16:39:08.687Z,100098.56
2023-08-12T16:41:38.425Z,100111.03
2023-08-12T16:44:06.722Z,100100.34
2023-08-12T16:46:34.693Z,100104.78
2023-08-12T16:49:05.231Z,100113.97
2023-08-12T16:51:34.232Z,100107.84
2023-08-12T16:54:02.182Z,100116.94
2023-08-12T16:56:31.851Z,100111.69
2023-08-12T16:59:01.286Z,100125.38
2023-08-12T17:01:29.400Z,100113.03
2023-08-12T17:03:57.948Z,100116.72
2023-08-12T17:06:27.319Z,100122.66
2023-08-12T17:08:55.809Z,100116.44
2023-08-12T17:11:24.353Z,100126.53
2023-08-12T17:13:52.485Z,100113.88
2023-08-12T17:16:20.549Z,100109.56
2023-08-12T17:18:49.443Z,100111.53
2023-08-12T17:21:17.478Z,100117.88
2023-08-12T17:23:47.325Z,100122.16
2023-08-12T17:26:15.801Z,100130.13
2023-08-12T17:28:43.760Z,100128.47
2023-08-12T17:31:13.004Z,100141.47
2023-08-12T17:33:41.683Z,100148.56
2023-08-12T17:36:09.685Z,100149.78
2023-08-12T17:38:38.144Z,100138.66
2023-08-12T17:41:07.674Z,100133.44
2023-08-12T17:43:35.462Z,100144.34
2023-08-12T17:46:04.046Z,100143.06
2023-08-12T17:48:33.012Z,100147.81
2023-08-12T17:51:01.053Z,100151.22
2023-08-12T17:53:29.564Z,100154.91
2023-08-12T17:55:57.608Z,100152.38
2023-08-12T17:58:27.581Z,100155.63
2023-08-12T18:00:56.556Z,100165.94
2023-08-12T18:03:24.675Z,100160.69
2023-08-12T18:05:53.767Z,100165.13
2023-08-12T18:08:21.959Z,100173.09
2023-08-12T18:10:49.969Z,100175.88
2023-08-12T18:13:21.478Z,100189.59
2023-08-12T18:15:51.226Z,100189.44
2023-08-12T18:18:20.245Z,100195.44
2023-08-12T18:20:48.755Z,100196.63
2023-08-12T18:23:17.686Z,100200.09
2023-08-12T18:25:45.969Z,100201.00
2023-08-12T18:28:14.051Z,100206.75
2023-08-12T18:30:42.999Z,100212.19
2023-08-12T18:33:14.974Z,100210.28
2023-08-12T18:35:43.853Z,100202.47
2023-08-12T18:38:11.931Z,100207.50
2023-08-12T18:40:39.964Z,100210.94
2023-08-12T18:43:08.894Z,100218.78
2023-08-12T18:45:37.613Z,100221.69
2023-08-12T18:48:07.742Z,100229.44
2023-08-12T18:50:37.125Z,100223.94
2023-08-12T18:53:05.927Z,100233.66
2023-08-12T18:55:34.865Z,100228.78
2023-08-12T18:58:03.097Z,100230.81
2023-08-12T19:00:31.439Z,100236.97
2023-08-12T19:03:00.041Z,100240.41
2023-08-12T19:05:28.688Z,100234.31
2023-08-12T19:07:58.540Z,100241.72
2023-08-12T19:10:26.689Z,100245.81
2023-08-12T19:12:55.592Z,100237.91
2023-08-12T19:15:24.639Z,100240.94
2023-08-12T19:17:52.763Z,100251.25
2023-08-12T19:20:21.099Z,100258.88
2023-08-12T19:22:50.498Z,100246.53
2023-08-12T19:25:20.064Z,100249.91
2023-08-12T19:27:48.107Z,100247.88
2023-08-12T19:30:16.247Z,100247.88
2023-08-12T19:32:52.737Z,100260.56
2023-08-12T19:35:22.305Z,100260.66
2023-08-12T19:37:53.477Z,100259.66
2023-08-12T19:40:23.068Z,100265.00
2023-08-12T19:42:51.094Z,100266.19
2023-08-12T19:45:20.647Z,100267.03
2023-08-12T19:47:49.153Z,100271.88
2023-08-12T19:50:17.657Z,100275.94
2023-08-12T19:52:45.675Z,100274.44
2023-08-12T19:55:14.217Z,100276.44
2023-08-12T19:59:26.545Z,100276.09
2023-08-12T20:01:54.631Z,100278.09
2023-08-12T20:04:24.570Z,100277.75
2023-08-12T20:06:53.098Z,100283.09
2023-08-12T20:09:21.147Z,100283.06
2023-08-12T20:11:49.937Z,100282.69
2023-08-12T20:14:17.972Z,100286.88
2023-08-12T20:16:47.803Z,100284.00
2023-08-12T20:19:16.431Z,100281.78
2023-08-12T20:21:44.621Z,100292.38
2023-08-12T20:24:12.830Z,100291.69
2023-08-12T20:26:40.804Z,100291.22
2023-08-12T20:29:09.867Z,100286.84
2023-08-12T20:31:37.870Z,100300.34
2023-08-12T20:34:08.594Z,100297.22
2023-08-12T20:36:37.521Z,100285.88
2023-08-12T20:39:05.871Z,100283.28
2023-08-12T20:41:35.497Z,100280.09
2023-08-12T20:44:03.732Z,100283.97
2023-08-12T20:46:31.902Z,100290.69
2023-08-12T20:49:00.565Z,100284.59
2023-08-12T20:51:29.945Z,100278.66
2023-08-12T20:53:58.578Z,100268.13
2023-08-12T20:56:26.707Z,100273.91
2023-08-12T20:58:54.645Z,100281.06
2023-08-12T21:01:23.859Z,100284.09
2023-08-12T21:03:52.079Z,100289.38
2023-08-12T21:06:20.143Z,100292.19
2023-08-12T21:08:50.604Z,100294.47
2023-08-12T21:11:19.157Z,100298.75
2023-08-12T21:13:48.082Z,100291.00
2023-08-12T21:16:16.135Z,100291.56
2023-08-12T21:18:45.124Z,100290.94
2023-08-12T21:21:13.174Z,100290.16
2023-08-12T21:23:41.148Z,100290.53
2023-08-12T21:26:11.228Z,100291.38
2023-08-12T21:28:39.467Z,100295.78
2023-08-12T21:31:07.495Z,100297.25
2023-08-12T21:33:36.442Z,100298.47
2023-08-12T21:36:04.839Z,100295.38
2023-08-12T21:38:32.866Z,100291.38
2023-08-12T21:41:02.335Z,100294.22
2023-08-12T21:43:57.805Z,100295.72
2023-08-12T21:46:32.702Z,100286.22
2023-08-12T21:49:01.857Z,100297.69
2023-08-12T21:51:30.364Z,100286.06
2023-08-12T21:53:59.414Z,100288.53
2023-08-12T21:56:27.553Z,100289.84
2023-08-12T21:58:57.717Z,100284.75
2023-08-12T22:01:26.042Z,100290.69
2023-08-12T22:03:54.382Z,100289.84
2023-08-12T22:06:22.468Z,100295.84
2023-08-12T22:08:51.384Z,100292.44
2023-08-12T22:11:19.429Z,100284.84
2023-08-12T22:13:48.379Z,100281.47
2023-08-12T22:16:17.786Z,100280.91
2023-08-12T22:18:47.005Z,100273.00
2023-08-12T22:21:15.116Z,100284.50
2023-08-12T22:23:43.095Z,100280.56
2023-08-12T22:26:12.557Z,100277.03
2023-08-12T22:28:40.842Z,100280.19
2023-08-12T22:31:09.076Z,100281.59
2023-08-12T22:33:39.574Z,100277.88
2023-08-12T22:36:11.711Z,100281.56
2023-08-12T22:38:41.832Z,100284.25
2023-08-12T22:41:10.063Z,100278.44
2023-08-12T22:43:38.703Z,100284.00
2023-08-12T22:46:07.772Z,100285.69
2023-08-12T22:48:35.814Z,100289.63
2023-08-12T22:51:05.829Z,100291.09
2023-08-12T22:53:34.200Z,100289.75
2023-08-12T22:56:02.724Z,100281.44
2023-08-12T22:58:30.840Z,100288.09
2023-08-12T23:00:59.302Z,100299.28
2023-08-12T23:03:27.920Z,100286.09
2023-08-12T23:05:55.948Z,100284.66
2023-08-12T23:08:25.448Z,100291.34
2023-08-12T23:10:55.408Z,100287.53
2023-08-12T23:13:23.929Z,100280.34
2023-08-12T23:15:52.774Z,100280.53
2023-08-12T23:18:21.284Z,100281.03
2023-08-12T23:20:49.807Z,100278.03
2023-08-12T23:23:17.940Z,100281.94
2023-08-12T23:25:47.808Z,100278.53
2023-08-12T23:28:15.803Z,100290.38
2023-08-12T23:30:44.303Z,100290.59
2023-08-12T23:33:12.755Z,100285.09
2023-08-12T23:35:41.587Z,100293.47
2023-08-12T23:38:10.727Z,100288.50
2023-08-12T23:40:38.758Z,100294.19
2023-08-12T23:43:09.087Z,100289.22
2023-08-12T23:45:38.109Z,100288.34
2023-08-12T23:48:06.843Z,100291.84
2023-08-12T23:50:35.509Z,100285.81
2023-08-12T23:53:04.630Z,100285.25
2023-08-12T23:55:34.727Z,100285.66
2023-08-12T23:58:02.912Z,100289.63
